createdAt,value
2023-06-28T00:00:31.222Z,1.90
2023-06-28T00:03:38.510Z,1.60
2023-06-28T00:06:25.181Z,2.20
2023-06-28T00:09:12.791Z,1.90
2023-06-28T00:11:59.573Z,2.10
2023-06-28T00:14:46.514Z,2.10
2023-06-28T00:17:33.427Z,1.70
2023-06-28T00:20:20.890Z,1.90
2023-06-28T00:23:07.945Z,2.50
2023-06-28T00:25:54.975Z,1.90
2023-06-28T00:28:42.144Z,1.80
2023-06-28T00:31:29.696Z,2.30
2023-06-28T00:34:16.568Z,1.60
2023-06-28T00:37:04.196Z,2.20
2023-06-28T00:39:50.793Z,1.90
2023-06-28T00:42:37.813Z,2.20
2023-06-28T00:45:24.434Z,2.70
2023-06-28T00:48:11.743Z,2.20
2023-06-28T00:50:58.480Z,3.00
2023-06-28T00:53:45.197Z,2.60
2023-06-28T00:56:32.951Z,3.40
2023-06-28T00:59:20.364Z,2.50
2023-06-28T01:02:12.825Z,2.90
2023-06-28T01:05:01.020Z,3.00
2023-06-28T01:07:53.427Z,2.70
2023-06-28T01:10:42.611Z,2.40
2023-06-28T01:13:36.257Z,2.50
2023-06-28T01:16:23.294Z,3.10
2023-06-28T01:19:18.150Z,2.20
2023-06-28T01:22:12.015Z,2.40
2023-06-28T01:25:01.032Z,1.80
2023-06-28T01:27:55.813Z,2.00
2023-06-28T01:30:50.531Z,1.90
2023-06-28T01:33:39.586Z,2.40
2023-06-28T01:36:29.940Z,2.50
2023-06-28T01:39:19.779Z,3.20
2023-06-28T01:42:09.768Z,2.50
2023-06-28T01:44:57.890Z,3.00
2023-06-28T01:47:53.639Z,2.90
2023-06-28T01:50:42.302Z,2.20
2023-06-28T01:53:31.616Z,1.90
2023-06-28T01:56:23.730Z,2.80
2023-06-28T01:59:32.394Z,2.10
2023-06-28T02:02:19.927Z,3.10
2023-06-28T02:05:08.945Z,2.30
2023-06-28T02:07:58.424Z,2.50
2023-06-28T02:10:46.328Z,2.70
2023-06-28T02:13:34.198Z,2.00
2023-06-28T02:16:24.887Z,3.10
2023-06-28T02:19:17.606Z,2.40
2023-06-28T02:22:08.694Z,2.80
2023-06-28T02:24:56.229Z,3.50
2023-06-28T02:27:43.936Z,3.30
2023-06-28T02:30:31.234Z,3.80
2023-06-28T02:33:18.607Z,3.00
2023-06-28T02:36:05.399Z,3.10
2023-06-28T02:38:54.706Z,3.30
2023-06-28T02:41:41.536Z,3.70
2023-06-28T02:44:28.688Z,3.70
2023-06-28T02:47:15.824Z,4.50
2023-06-28T02:50:07.665Z,3.40
2023-06-28T02:53:01.788Z,4.10
2023-06-28T02:55:49.446Z,4.30
2023-06-28T02:58:38.819Z,4.60
2023-06-28T03:01:27.530Z,4.70
2023-06-28T03:04:14.986Z,4.20
2023-06-28T03:07:04.433Z,4.70
2023-06-28T03:09:52.071Z,5.00
2023-06-28T03:12:39.885Z,5.20
2023-06-28T03:15:27.443Z,5.90
2023-06-28T03:18:14.522Z,5.30
2023-06-28T03:21:01.315Z,6.20
2023-06-28T03:23:48.072Z,5.70
2023-06-28T03:26:36.384Z,6.80
2023-06-28T03:29:23.764Z,5.00
2023-06-28T03:32:11.608Z,4.00
2023-06-28T03:34:59.226Z,4.60
2023-06-28T03:37:50.181Z,4.70
2023-06-28T03:40:37.907Z,5.70
2023-06-28T03:43:25.764Z,5.20
2023-06-28T03:46:13.254Z,5.20
2023-06-28T03:49:04.203Z,5.30
2023-06-28T03:51:51.180Z,3.80
2023-06-28T03:54:38.174Z,4.80
2023-06-28T03:57:25.992Z,5.20
2023-06-28T04:00:14.431Z,5.30
2023-06-28T04:03:03.796Z,4.60
2023-06-28T04:05:50.991Z,4.40
2023-06-28T04:08:38.744Z,4.00
2023-06-28T04:11:26.028Z,4.70
2023-06-28T04:14:13.329Z,5.00
2023-06-28T04:17:00.660Z,4.20
2023-06-28T04:19:47.530Z,3.70
2023-06-28T04:22:35.916Z,4.20
2023-06-28T04:25:22.931Z,4.70
2023-06-28T04:28:11.337Z,4.00
2023-06-28T04:31:00.534Z,4.00
2023-06-28T04:33:47.726Z,4.20
2023-06-28T04:36:36.820Z,3.90
2023-06-28T04:39:24.448Z,5.20
2023-06-28T04:42:14.606Z,3.60
2023-06-28T04:45:01.898Z,5.10
2023-06-28T04:47:49.597Z,4.50
2023-06-28T04:50:38.231Z,4.30
2023-06-28T04:53:46.785Z,3.90
2023-06-28T04:56:54.545Z,4.40
2023-06-28T04:59:43.162Z,3.50
2023-06-28T05:02:30.869Z,3.40
2023-06-28T05:05:30.350Z,4.10
2023-06-28T05:08:21.207Z,3.90
2023-06-28T05:11:09.107Z,3.40
2023-06-28T05:14:20.966Z,3.90
2023-06-28T05:17:29.942Z,3.00
2023-06-28T05:20:38.183Z,3.00
2023-06-28T05:24:06.115Z,3.20
2023-06-28T05:27:21.197Z,3.20
2023-06-28T05:31:07.753Z,2.60
2023-06-28T05:34:14.922Z,3.20
2023-06-28T05:37:03.621Z,2.90
2023-06-28T05:40:11.024Z,2.90
2023-06-28T05:43:22.665Z,2.00
2023-06-28T05:46:30.304Z,2.50
2023-06-28T05:49:31.509Z,2.30
2023-06-28T05:52:21.074Z,2.00
2023-06-28T05:55:52.165Z,2.50
2023-06-28T05:59:17.038Z,2.20
2023-06-28T06:02:29.072Z,1.80
2023-06-28T06:05:36.405Z,1.90
2023-06-28T06:08:47.198Z,2.90
2023-06-28T06:11:58.357Z,2.70
2023-06-28T06:15:09.822Z,2.80
2023-06-28T06:18:04.339Z,3.10
2023-06-28T06:20:56.388Z,2.30
2023-06-28T06:23:43.542Z,2.50
2023-06-28T06:26:32.834Z,2.40
2023-06-28T06:29:35.034Z,1.90
2023-06-28T06:32:48.599Z,2.40
2023-06-28T06:36:10.302Z,2.60
2023-06-28T06:38:57.711Z,2.30
2023-06-28T06:42:17.011Z,2.10
2023-06-28T06:45:07.200Z,2.20
2023-06-28T06:47:56.328Z,2.60
2023-06-28T06:50:46.610Z,2.30
2023-06-28T06:53:34.865Z,2.00
2023-06-28T06:56:23.503Z,2.40
2023-06-28T06:59:30.681Z,1.60
2023-06-28T07:02:23.480Z,1.80
2023-06-28T07:05:16.821Z,2.50
2023-06-28T07:08:05.162Z,2.00
2023-06-28T07:10:56.763Z,1.40
2023-06-28T07:13:45.268Z,2.00
2023-06-28T07:16:51.134Z,1.50
2023-06-28T07:20:03.418Z,1.90
2023-06-28T07:23:17.822Z,2.00
2023-06-28T07:26:27.559Z,1.60
2023-06-28T07:29:25.362Z,1.60
2023-06-28T07:32:31.009Z,2.10
2023-06-28T07:35:21.231Z,1.50
2023-06-28T07:38:25.262Z,2.40
2023-06-28T07:41:17.518Z,2.10
2023-06-28T07:44:28.467Z,1.70
2023-06-28T07:47:28.055Z,1.80
2023-06-28T07:50:16.307Z,2.70
2023-06-28T07:53:03.916Z,2.30
2023-06-28T07:55:52.895Z,1.40
2023-06-28T07:58:40.621Z,1.50
2023-06-28T08:01:47.794Z,1.90
2023-06-28T08:04:38.179Z,1.60
2023-06-28T08:07:46.238Z,1.80
2023-06-28T08:10:39.207Z,1.70
2023-06-28T08:13:58.223Z,1.40
2023-06-28T08:17:17.221Z,1.10
2023-06-28T08:20:13.810Z,1.50
2023-06-28T08:23:20.915Z,1.50
2023-06-28T08:26:26.378Z,0.90
2023-06-28T08:29:56.049Z,1.30
2023-06-28T08:33:29.391Z,1.50
2023-06-28T08:36:24.635Z,1.40
2023-06-28T08:39:33.324Z,1.50
2023-06-28T08:42:22.919Z,1.30
2023-06-28T08:45:22.681Z,1.50
2023-06-28T08:48:24.296Z,1.40
2023-06-28T08:51:48.238Z,1.10
2023-06-28T08:54:53.369Z,1.70
2023-06-28T08:58:02.468Z,1.40
2023-06-28T09:00:51.505Z,1.30
2023-06-28T09:03:44.660Z,2.00
2023-06-28T09:07:13.030Z,1.30
2023-06-28T09:10:04.125Z,1.10
2023-06-28T09:12:58.646Z,1.30
2023-06-28T09:15:46.380Z,1.90
2023-06-28T09:18:34.034Z,1.00
2023-06-28T09:21:25.694Z,1.30
2023-06-28T09:24:33.573Z,1.20
2023-06-28T09:27:23.361Z,1.00
2023-06-28T09:30:30.665Z,1.00
2023-06-28T09:33:20.905Z,2.00
2023-06-28T09:36:09.363Z,1.20
2023-06-28T09:39:01.712Z,1.20
2023-06-28T09:41:50.209Z,1.50
2023-06-28T09:44:38.968Z,1.40
2023-06-28T09:47:35.354Z,1.40
2023-06-28T09:50:27.208Z,2.00
2023-06-28T09:53:18.563Z,1.10
2023-06-28T09:56:10.520Z,1.60
2023-06-28T09:59:30.479Z,1.40
2023-06-28T10:02:30.582Z,1.50
2023-06-28T10:05:20.555Z,1.30
2023-06-28T10:08:08.479Z,1.20
2023-06-28T10:10:57.781Z,1.80
2023-06-28T10:13:48.663Z,1.40
2023-06-28T10:16:46.462Z,1.40
2023-06-28T10:19:42.057Z,1.60
2023-06-28T10:22:47.096Z,1.50
2023-06-28T10:25:34.069Z,1.40
2023-06-28T10:28:21.941Z,2.50
2023-06-28T10:31:10.058Z,1.60
2023-06-28T10:34:00.377Z,1.50
2023-06-28T10:36:51.481Z,1.30
2023-06-28T10:39:42.692Z,1.80
2023-06-28T10:42:41.262Z,1.40
2023-06-28T10:45:42.987Z,0.90
2023-06-28T10:48:38.178Z,1.80
2023-06-28T10:51:49.095Z,1.40
2023-06-28T10:54:57.001Z,1.10
2023-06-28T10:57:45.660Z,1.70
2023-06-28T11:00:56.036Z,1.20
2023-06-28T11:03:45.943Z,1.30
2023-06-28T11:06:34.297Z,1.50
2023-06-28T11:10:08.533Z,1.30
2023-06-28T11:13:18.519Z,1.20
2023-06-28T11:16:30.832Z,1.50
2023-06-28T11:19:26.147Z,1.10
2023-06-28T11:22:26.428Z,1.40
2023-06-28T11:25:19.517Z,1.70
2023-06-28T11:28:30.406Z,1.40
2023-06-28T11:31:26.362Z,1.20
2023-06-28T11:34:17.253Z,1.00
2023-06-28T11:37:14.188Z,1.70
2023-06-28T11:40:34.974Z,1.70
2023-06-28T11:43:45.240Z,1.90
2023-06-28T11:46:48.343Z,1.30
2023-06-28T11:49:35.646Z,1.50
2023-06-28T11:52:22.605Z,1.10
2023-06-28T11:55:20.816Z,1.80
2023-06-28T11:58:08.024Z,1.10
2023-06-28T12:00:56.282Z,2.00
2023-06-28T12:04:04.462Z,1.10
2023-06-28T12:06:55.100Z,1.40
2023-06-28T12:09:44.126Z,1.40
2023-06-28T12:12:44.303Z,1.30
2023-06-28T12:15:31.785Z,1.10
2023-06-28T12:18:43.741Z,1.00
2023-06-28T12:21:32.540Z,1.40
2023-06-28T12:24:33.782Z,1.10
2023-06-28T12:27:21.278Z,1.60
2023-06-28T12:30:10.050Z,1.80
2023-06-28T12:32:58.070Z,1.50
2023-06-28T12:35:45.584Z,1.20
2023-06-28T12:38:33.207Z,1.40
2023-06-28T12:41:20.387Z,1.30
2023-06-28T12:44:07.804Z,2.30
2023-06-28T12:46:55.032Z,1.70
2023-06-28T12:49:42.923Z,1.90
2023-06-28T12:52:33.397Z,1.50
2023-06-28T12:55:22.123Z,1.40
2023-06-28T12:58:10.950Z,1.80
2023-06-28T13:00:58.566Z,1.70
2023-06-28T13:03:50.789Z,1.30
2023-06-28T13:06:40.757Z,1.00
2023-06-28T13:09:29.949Z,1.50
2023-06-28T13:12:17.699Z,1.70
2023-06-28T13:15:05.909Z,1.60
2023-06-28T13:17:53.289Z,1.50
2023-06-28T13:20:40.827Z,1.50
2023-06-28T13:23:28.233Z,2.10
2023-06-28T13:26:15.648Z,1.30
2023-06-28T13:29:06.566Z,2.10
2023-06-28T13:31:58.235Z,1.90
2023-06-28T13:34:47.097Z,2.30
2023-06-28T13:37:34.674Z,1.80
2023-06-28T13:40:23.103Z,1.50
2023-06-28T13:43:14.207Z,1.20
2023-06-28T13:46:01.838Z,1.30
2023-06-28T13:48:48.434Z,1.60
2023-06-28T13:51:37.849Z,1.00
2023-06-28T13:54:25.717Z,0.90
2023-06-28T13:57:20.663Z,1.60
2023-06-28T14:00:08.435Z,1.60
2023-06-28T14:02:55.882Z,1.20
2023-06-28T14:05:44.195Z,2.10
2023-06-28T14:08:31.952Z,2.00
2023-06-28T14:11:22.695Z,1.20
2023-06-28T14:14:11.967Z,1.10
2023-06-28T14:16:59.556Z,1.40
2023-06-28T14:19:46.801Z,1.70
2023-06-28T14:22:35.669Z,2.00
2023-06-28T14:25:25.369Z,1.30
2023-06-28T14:28:18.191Z,1.50
2023-06-28T14:31:29.101Z,1.60
2023-06-28T14:34:19.544Z,1.60
2023-06-28T14:37:14.585Z,2.30
2023-06-28T14:40:03.241Z,2.20
2023-06-28T14:43:19.261Z,1.90
2023-06-28T14:46:07.397Z,3.00
2023-06-28T14:48:55.442Z,2.00
2023-06-28T14:51:42.561Z,1.80
2023-06-28T14:54:32.339Z,2.10
2023-06-28T14:57:21.167Z,1.40
2023-06-28T15:00:11.517Z,2.30
2023-06-28T15:02:59.633Z,2.20
2023-06-28T15:05:51.810Z,1.70
2023-06-28T15:08:39.186Z,2.00
2023-06-28T15:11:28.838Z,1.40
2023-06-28T15:14:25.581Z,1.90
2023-06-28T15:17:13.103Z,0.90
2023-06-28T15:20:00.847Z,1.50
2023-06-28T15:22:47.692Z,2.40
2023-06-28T15:25:34.639Z,2.10
2023-06-28T15:28:23.779Z,1.30
2023-06-28T15:31:11.355Z,2.40
2023-06-28T15:34:07.075Z,2.10
2023-06-28T15:36:54.543Z,2.20
2023-06-28T15:39:51.396Z,1.50
2023-06-28T15:42:43.803Z,1.80
2023-06-28T15:45:32.497Z,2.20
2023-06-28T15:48:22.499Z,2.50
2023-06-28T15:51:19.600Z,2.30
2023-06-28T15:54:18.757Z,1.90
2023-06-28T15:57:19.675Z,1.90
2023-06-28T16:00:27.520Z,2.60
2023-06-28T16:03:15.109Z,1.60
2023-06-28T16:06:03.789Z,2.70
2023-06-28T16:08:53.353Z,2.20
2023-06-28T16:11:41.133Z,2.40
2023-06-28T16:14:51.708Z,2.80
2023-06-28T16:17:45.373Z,3.30
2023-06-28T16:20:50.484Z,2.30
2023-06-28T16:23:37.889Z,3.00
2023-06-28T16:26:25.793Z,2.10
2023-06-28T16:29:23.017Z,3.10
2023-06-28T16:32:30.755Z,1.80
2023-06-28T16:35:18.810Z,3.30
2023-06-28T16:38:06.345Z,3.10
2023-06-28T16:40:56.259Z,3.60
2023-06-28T16:43:44.970Z,3.10
2023-06-28T16:46:33.353Z,3.20
2023-06-28T16:49:20.953Z,3.00
2023-06-28T16:52:09.509Z,3.60
2023-06-28T16:55:04.573Z,3.00
2023-06-28T16:57:51.813Z,3.00
2023-06-28T17:00:42.281Z,4.20
2023-06-28T17:03:43.815Z,3.10
2023-06-28T17:06:34.422Z,2.60
2023-06-28T17:09:23.756Z,2.90
2023-06-28T17:12:12.833Z,2.80
2023-06-28T17:15:10.718Z,3.30
2023-06-28T17:17:59.899Z,3.20
2023-06-28T17:20:47.565Z,4.20
2023-06-28T17:23:41.877Z,4.30
2023-06-28T17:26:31.634Z,3.90
2023-06-28T17:29:20.971Z,3.40
2023-06-28T17:32:08.312Z,3.50
2023-06-28T17:34:57.122Z,4.00
2023-06-28T17:37:45.306Z,4.10
2023-06-28T17:40:32.394Z,4.00
2023-06-28T17:43:21.590Z,4.60
2023-06-28T17:46:10.787Z,4.70
2023-06-28T17:48:58.131Z,4.10
2023-06-28T17:51:46.597Z,4.20
2023-06-28T17:54:36.419Z,5.40
2023-06-28T17:57:25.597Z,5.60
2023-06-28T18:00:37.107Z,4.70
2023-06-28T18:03:25.201Z,6.50
2023-06-28T18:06:34.256Z,4.40
2023-06-28T18:09:25.271Z,4.70
2023-06-28T18:12:57.613Z,5.30
2023-06-28T18:16:35.766Z,5.00
2023-06-28T18:20:10.138Z,3.40
2023-06-28T18:23:13.359Z,3.90
2023-06-28T18:26:41.064Z,5.40
2023-06-28T18:30:01.492Z,4.70
2023-06-28T18:32:48.971Z,3.40
2023-06-28T18:36:11.792Z,3.20
2023-06-28T18:39:24.850Z,3.20
2023-06-28T18:42:41.283Z,3.60
2023-06-28T18:45:42.334Z,3.40
2023-06-28T18:48:53.424Z,3.60
2023-06-28T18:52:04.927Z,2.90
2023-06-28T18:55:37.727Z,3.90
2023-06-28T18:58:53.899Z,2.60
2023-06-28T19:02:22.210Z,2.70
2023-06-28T19:05:29.865Z,2.30
2023-06-28T19:08:34.975Z,3.40
2023-06-28T19:11:41.165Z,2.70
2023-06-28T19:15:13.675Z,2.50
2023-06-28T19:18:49.925Z,3.20
2023-06-28T19:22:45.904Z,3.20
2023-06-28T19:26:12.970Z,3.30
2023-06-28T19:30:03.129Z,3.60
2023-06-28T19:33:12.789Z,4.00
2023-06-28T19:36:56.898Z,3.00
2023-06-28T19:40:27.887Z,3.90
2023-06-28T19:44:26.922Z,3.60
2023-06-28T19:47:46.961Z,3.50
2023-06-28T19:51:29.914Z,3.90
2023-06-28T19:55:29.047Z,3.50
2023-06-28T19:59:28.705Z,4.00
2023-06-28T20:03:33.910Z,4.50
2023-06-28T20:07:14.989Z,4.00
2023-06-28T20:10:33.896Z,3.70
2023-06-28T20:14:15.374Z,3.00
2023-06-28T20:18:24.915Z,3.80
2023-06-28T20:21:49.932Z,3.90
2023-06-28T20:25:22.905Z,4.00
2023-06-28T20:28:53.607Z,3.50
2023-06-28T20:32:36.915Z,3.40
2023-06-28T20:36:07.200Z,3.10
2023-06-28T20:39:30.948Z,4.40
2023-06-28T20:43:00.060Z,4.20
2023-06-28T20:46:08.361Z,3.30
2023-06-28T20:48:57.797Z,3.70
2023-06-28T20:51:46.491Z,3.10
2023-06-28T20:54:38.493Z,3.60
2023-06-28T20:57:26.925Z,2.90
2023-06-28T21:00:16.445Z,3.20
2023-06-28T21:03:05.946Z,3.10
2023-06-28T21:05:55.246Z,3.20
2023-06-28T21:08:47.508Z,4.10
2023-06-28T21:11:34.563Z,3.60
2023-06-28T21:14:21.491Z,3.30
2023-06-28T21:17:09.405Z,3.90
2023-06-28T21:19:56.396Z,3.20
2023-06-28T21:22:43.471Z,3.90
2023-06-28T21:25:31.601Z,4.20
2023-06-28T21:28:18.628Z,4.30
2023-06-28T21:31:06.575Z,4.50
2023-06-28T21:33:53.848Z,3.60
2023-06-28T21:36:40.636Z,5.40
2023-06-28T21:39:28.518Z,4.90
2023-06-28T21:42:16.680Z,4.40
2023-06-28T21:45:04.034Z,4.10
2023-06-28T21:47:51.340Z,4.50
2023-06-28T21:50:38.613Z,5.00
2023-06-28T21:53:25.629Z,4.90
2023-06-28T21:56:15.075Z,4.50
2023-06-28T21:59:06.548Z,4.90
2023-06-28T22:01:54.654Z,5.00
2023-06-28T22:04:43.336Z,5.80
2023-06-28T22:07:33.581Z,5.70
2023-06-28T22:10:32.523Z,5.70
2023-06-28T22:13:22.469Z,5.20
2023-06-28T22:16:19.150Z,5.60
2023-06-28T22:22:08.094Z,5.60
2023-06-28T22:25:08.145Z,4.70
2023-06-28T22:28:16.422Z,6.20
2023-06-28T22:31:10.545Z,5.80
2023-06-28T22:34:19.172Z,6.40
2023-06-28T22:37:06.859Z,5.70
2023-06-28T22:40:24.657Z,6.50
2023-06-28T22:43:29.690Z,6.70
2023-06-28T22:46:45.133Z,7.60
2023-06-28T22:49:42.750Z,7.80
2023-06-28T22:52:48.868Z,6.70
2023-06-28T22:56:13.562Z,7.00
2023-06-28T22:59:34.296Z,8.60
2023-06-28T23:02:40.385Z,8.00
2023-06-28T23:05:47.182Z,7.00
2023-06-28T23:08:58.631Z,8.10
2023-06-28T23:12:38.859Z,8.30
2023-06-28T23:16:05.960Z,8.60
2023-06-28T23:19:27.044Z,6.70
2023-06-28T23:22:17.495Z,7.50
2023-06-28T23:25:48.880Z,7.60
2023-06-28T23:28:44.966Z,7.10
2023-06-28T23:32:04.095Z,7.50
2023-06-28T23:35:23.887Z,9.90
2023-06-28T23:39:20.295Z,9.40
2023-06-28T23:42:31.643Z,9.60
2023-06-28T23:45:54.865Z,8.60
2023-06-28T23:49:14.802Z,8.80
2023-06-28T23:52:30.577Z,9.40
2023-06-28T23:55:49.865Z,10.60
2023-06-28T23:59:47.981Z,9.00
